Lyntupy, Belarus
Current Conditions -  °F | °C
As of 5:20 PM on Saturday 25 Oct 2014 (Local Time) from EYVI Reporting Station
Clear Clear  
Wind Chill: 23°   Ceiling: Unl
Heat Index: 32°   Visibility: 6mi
Dew Point: 14°   Wind: 12mph
Humidity: 47%   Direction: 150°SSE
Pressure: 30.42"   Gusts: NA
Location:  55.05°N, 26.31°E
Report Text: EYVI 251520Z 15010KT CAVOK 00/M10 Q1030 NOSIG
Loading
Personal Weather Stations






























Interactive Weather Map
Tropical Storm Tracking
New forecast layout! Learn more

10-Day Weather Forecast

Advertisements
Track Severe Weather on mobile